• Join FlightAware (Why Join?)
  • Login
  • US Flag 
02:32AM EST


 

Airport Tracker/Info


-or-


 

Live Flight TrackerFlight Track Log ✈ SWA104 ✈ 28-Apr-2013 ✈ KMHT - KBWI

Flight Track Log - Related Links

Times and Time Zones

All times are in EDT time to prevent confusion due to time zone crossing. See the SWA104 flight status page for this flight to view local times or setup timezone preferences in your user account.

Time Position Orientation Groundspeed Altitude Reporting Facility
EDT Latitude Longitude Course Direction KTS MPH feet Rate Location/Type
08:43PM 42.9500 -71.4167 202° Southwest 162 186 1,000  Level KA90
08:44PM 42.9667 -71.4167 360° North 192 221 1,600 2,520 Climbing KA90
08:45PM 43.0186 -71.3836 25° Northeast 236 272 4,600 3,600 Climbing Boston Center
08:46PM 43.0428 -71.3067 67° East 191 220 9,200 3,180 Climbing Boston Center
08:47PM 43.0522 -71.2014 83° East 242 278 11,000 2,520 Climbing Boston Center
08:48PM 43.0675 -71.0872 80° East 318 366 14,300 3,480 Climbing Boston Center
08:49PM 42.9279 -70.8975 202° Southwest  Level FlightAware Approximate
08:49PM 43.0492 -70.9456 100° East 344 396 18,000  Level Boston Center
08:50PM 42.9650 -70.8908 155° Southeast 325 374 20,100 2,340 Climbing Boston Center
08:51PM 42.8594 -70.9417 199° South 293 337 22,700 2,640 Climbing Boston Center
08:52PM 42.7519 -71.0150 207° Southwest 354 407 25,400 2,580 Climbing Boston Center
08:53PM 42.6828 -71.1408 233° Southwest 374 430 27,900 1,200 Climbing Boston Center
08:54PM 42.6092 -71.2750 233° Southwest 406 467 27,900  Level Boston Center
08:55PM 42.5333 -71.4117 233° Southwest 442 509 28,000  Climbing Boston Center
08:56PM 42.4614 -71.5481 234° Southwest 452 520 28,000  Level Boston Center
08:57PM 42.3833 -71.6783 231° Southwest 452 520 28,000  Level Boston Center
08:58PM 42.3069 -71.8111 232° Southwest 452 520 28,000  Level Boston Center
08:59PM 42.2347 -71.9408 233° Southwest 447 514 28,000  Level Boston Center
09:00PM 42.1581 -72.0733 232° Southwest 447 514 28,000  Level Boston Center
09:01PM 42.0856 -72.2022 233° Southwest 442 509 28,000  Level Boston Center
09:02PM 42.0106 -72.3339 233° Southwest 442 509 28,000  Level Boston Center
09:03PM 41.9356 -72.4653 233° Southwest 442 509 28,000  Level Boston Center
09:04PM 41.8606 -72.5906 231° Southwest 442 509 28,000  Level Boston Center
09:05PM 41.7872 -72.7214 233° Southwest 442 509 28,000  Level Boston Center
09:06PM 41.7097 -72.8517 231° Southwest 448 516 28,000  Level Boston Center
09:07PM 41.6281 -72.9928 232° Southwest 448 516 28,000  Level Boston Center
09:08PM 41.5542 -73.1225 233° Southwest 448 516 28,000  Level Boston Center
09:10PM 41.4167 -73.3553 232° Southwest 426 490 28,000  Level New York Center
09:11PM 41.3408 -73.4847 232° Southwest 432 497 28,000  Level New York Center
09:12PM 41.2669 -73.6089 232° Southwest 432 497 28,000  Level New York Center
09:13PM 41.1931 -73.7353 232° Southwest 432 497 28,000  Level New York Center
09:14PM 41.1211 -73.8586 232° Southwest 432 497 28,000  Level New York Center
09:15PM 41.0472 -73.9819 232° Southwest 432 497 28,000  Level New York Center
09:16PM 40.9750 -74.1022 232° Southwest 432 497 28,000  Level New York Center
09:17PM 40.8989 -74.2192 229° Southwest 432 497 28,000  Level New York Center
09:18PM 40.8264 -74.3389 231° Southwest 432 497 28,000  Level New York Center
09:19PM 40.7561 -74.4556 232° Southwest 427 491 28,000  Level New York Center
09:20PM 40.6836 -74.5750 231° Southwest 427 491 28,000 -360 Level New York Center
09:21PM 40.6108 -74.6967 232° Southwest 433 498 27,300 -840 Descending New York Center
09:22PM 40.5319 -74.8150 229° Southwest 433 498 26,400 -1,020 Descending New York Center
09:23PM 40.4531 -74.9275 227° Southwest 433 498 25,400 -1,020 Descending New York Center
09:24PM 40.3919 -75.0575 238° Southwest 428 493 24,400 -1,020 Descending New York Center
09:25PM 40.3350 -75.1900 241° Southwest 423 487 23,400 -1,440 Descending New York Center
09:26PM 40.2842 -75.3203 243° Southwest 417 480 21,600 -2,340 Descending New York Center
09:27PM 40.2336 -75.4447 242° Southwest 405 466 18,700 -1,860 Descending New York Center
09:28PM 40.1706 -75.5628 235° Southwest 400 460 18,000 -360 Descending New York Center
09:29PM 40.0897 -75.6519 220° Southwest 388 447 18,000  Level New York Center
09:30PM 40.0086 -75.7467 222° Southwest 388 447 18,000  Level New York Center
09:31PM 39.9275 -75.8383 221° Southwest 388 447 18,000 -420 Level New York Center
09:32PM 39.7833 -76.0167 224° Southwest 379 436 16,900 -1,380 Descending Potomac TRACON
09:33PM 39.7000 -76.1000 218° Southwest 381 438 14,200 -2,580 Descending Potomac TRACON
09:34PM 39.6333 -76.2000 229° Southwest 359 413 11,800 -1,800 Descending Potomac TRACON
09:35PM 39.5833 -76.3000 237° Southwest 311 358 10,700 -1,020 Descending Potomac TRACON
09:36PM 39.5333 -76.3667 226° Southwest 276 318 9,800 -1,140 Descending Potomac TRACON
09:37PM 39.4833 -76.4500 232° Southwest 258 297 8,500 -1,440 Descending Potomac TRACON
09:38PM 39.4333 -76.5167 226° Southwest 256 295 7,000 -1,560 Descending Potomac TRACON
09:39PM 39.4000 -76.5833 237° Southwest 255 293 5,400 -1,500 Descending Potomac TRACON
09:40PM 39.3500 -76.6500 226° Southwest 253 291 4,000 -720 Descending Potomac TRACON
09:41PM 39.3000 -76.7167 226° Southwest 234 269 4,000 -180 Level Potomac TRACON
09:42PM 39.2667 -76.7833 237° Southwest 211 243 3,700 -540 Descending Potomac TRACON
09:43PM 39.2333 -76.8500 237° Southwest 199 229 3,000 -540 Descending Potomac TRACON
09:44PM 39.2000 -76.8500 180° South 164 189 2,700 -600 Descending Potomac TRACON
09:45PM 39.1833 -76.8000 113° Southeast 164 189 1,900 -780 Descending Potomac TRACON
09:46PM 39.1833 -76.7500 90° East 129 148 1,200 -720 Descending Potomac TRACON
09:47PM 39.1833 -76.7167 90° East 130 150 500 -720 Descending Potomac TRACON
09:49PM 39.1667 -76.6667 270° West  Level FlightAware Approximate